ADDS METAR Data INFO
IDs: Format: Raw Decoded Include TAF

Data at: 0716 UTC 19 Oct 2017

KECP 190653Z AUTO 04004KT 10SM CLR 17/13 A3016 RMK AO2 SLP226 T01720133
KECP 190553Z AUTO 03004KT 10SM CLR 18/13 A3017 RMK AO2 SLP229 T01780133 10206 20172 402720100 58006
KECP 190453Z AUTO 03003KT 10SM SCT049 18/14 A3018 RMK AO2 SLP232 T01830139
KECP 190353Z AUTO 01006KT 10SM SCT060 19/14 A3019 RMK AO2 SLP236 T01940139
KECP 190253Z AUTO 03004KT 10SM CLR 20/14 A3019 RMK AO2 SLP235 T02000139 51012
KECP 190153Z 01005KT 10SM CLR 19/14 A3018 RMK AO2 SLP232 T01940144
KECP 190053Z 02007KT 10SM SCT047 20/14 A3017 RMK AO2 SLP227 T02000144
KECP 182353Z 01004KT 10SM CLR 20/15 A3016 RMK AO2 SLP223 T02000150 10272 20200 53008
KECP 182253Z 36006KT 10SM CLR 23/14 A3014 RMK AO2 SLP216 T02330144
KECP 182153Z 36006KT 10SM CLR 26/13 A3013 RMK AO2 SLP216 T02610133
KECP 182053Z 03007KT 10SM CLR 27/12 A3013 RMK AO2 SLP215 T02670117 56012
KECP 181953Z 03008KT 10SM CLR 27/11 A3014 RMK AO2 SLP217 T02670111
KECP 181853Z 04006KT 10SM CLR 26/13 A3015 RMK AO2 SLP220 T02610128
KECP 181753Z VRB06KT 10SM CLR 25/13 A3017 RMK AO2 SLP228 T02500128 10250 20106 58020
KECP 181653Z 04010KT 10SM CLR 24/13 A3019 RMK AO2 SLP236 T02390133
KECP 181553Z 06008KT 10SM CLR 22/13 A3022 RMK AO2 SLP244 T02220128
KECP 181453Z 03009KT 10SM CLR 20/12 A3023 RMK AO2 SLP247 T02000117 51011
KECP 181353Z 04008KT 10SM CLR 16/09 A3022 RMK AO2 SLP244 T01610094
KECP 181253Z 03007KT 10SM CLR 13/08 A3022 RMK AO2 SLP243 T01330078
KECP 181153Z 02004KT 10SM CLR 11/07 A3020 RMK AO2 SLP237 T01060072 10133 20100 53011
KECP 181053Z 01005KT 10SM CLR 11/08 A3018 RMK AO2 SLP232 T01060078
KECP 180953Z AUTO 36004KT 10SM CLR 11/07 A3017 RMK AO2 SLP229 T01110072
KECP 180853Z AUTO 01004KT 10SM CLR 12/07 A3016 RMK AO2 SLP226 T01170072 56006
KECP 180753Z AUTO 03005KT 10SM CLR 12/07 A3017 RMK AO2 SLP227 T01170072
KECP 180653Z AUTO 05005KT 10SM CLR 13/07 A3017 RMK AO2 SLP228 T01330072
KECP 180553Z AUTO 04004KT 10SM CLR 12/08 A3018 RMK AO2 SLP232 T01220083 10183 20122 402560122 57002
KECP 180453Z AUTO 03005KT 10SM CLR 13/08 A3018 RMK AO2 SLP232 T01330083
KECP 180353Z AUTO 03005KT 10SM CLR 13/09 A3019 RMK AO2 SLP233 T01330089
KECP 180253Z AUTO 03006KT 10SM CLR 15/09 A3019 RMK AO2 SLP234 T01500089 51015
KECP 180153Z 02006KT 10SM CLR 17/09 A3018 RMK AO2 SLP232 T01670089
KECP 180053Z 36006KT 10SM CLR 17/09 A3017 RMK AO2 SLP226 T01720094
KECP 172353Z 35006KT 10SM CLR 18/11 A3014 RMK AO2 SLP218 T01830111 10256 20183 53015
KECP 172253Z 01006KT 10SM CLR 22/11 A3012 RMK AO2 SLP211 T02170111
KECP 172153Z 02011KT 10SM CLR 24/11 A3011 RMK AO2 SLP206 T02440111
KECP 172053Z 01010G16KT 10SM CLR 25/12 A3010 RMK AO2 SLP203 T02500117 55015
KECP 171953Z AUTO 01012KT 10SM CLR 25/12 A3010 RMK AO2 SLP203 T02500122